sensor_id;sensor_type;location;lat;lon;timestamp;temperature;humidity
11559;DHT22;5835;42.930;25.178;2023-07-02T00:02:21;20.90;99.90
11559;DHT22;5835;42.930;25.178;2023-07-02T00:04:49;21.00;1.00
11559;DHT22;5835;42.930;25.178;2023-07-02T00:07:18;21.00;92.00
11559;DHT22;5835;42.930;25.178;2023-07-02T00:09:45;20.80;99.90
11559;DHT22;5835;42.930;25.178;2023-07-02T00:12:13;20.60;1.00
11559;DHT22;5835;42.930;25.178;2023-07-02T00:14:41;20.30;99.90
11559;DHT22;5835;42.930;25.178;2023-07-02T00:17:08;20.10;1.00
11559;DHT22;5835;42.930;25.178;2023-07-02T00:19:38;20.00;1.00
11559;DHT22;5835;42.930;25.178;2023-07-02T00:22:07;19.90;1.00
11559;DHT22;5835;42.930;25.178;2023-07-02T00:24:36;19.80;1.00
11559;DHT22;5835;42.930;25.178;2023-07-02T00:27:04;19.60;74.50
11559;DHT22;5835;42.930;25.178;2023-07-02T00:29:32;19.10;99.90
11559;DHT22;5835;42.930;25.178;2023-07-02T00:31:59;18.90;99.90
11559;DHT22;5835;42.930;25.178;2023-07-02T00:34:27;18.80;99.90
11559;DHT22;5835;42.930;25.178;2023-07-02T00:36:54;18.80;99.90
11559;DHT22;5835;42.930;25.178;2023-07-02T00:39:22;18.90;99.90
11559;DHT22;5835;42.930;25.178;2023-07-02T00:41:51;18.90;99.90
11559;DHT22;5835;42.930;25.178;2023-07-02T00:44:18;19.10;99.90
11559;DHT22;5835;42.930;25.178;2023-07-02T00:46:45;19.40;99.90
11559;DHT22;5835;42.930;25.178;2023-07-02T00:49:13;19.40;99.90
11559;DHT22;5835;42.930;25.178;2023-07-02T00:51:40;19.50;99.90
11559;DHT22;5835;42.930;25.178;2023-07-02T00:54:08;19.30;99.90
11559;DHT22;5835;42.930;25.178;2023-07-02T00:56:36;19.20;99.90
11559;DHT22;5835;42.930;25.178;2023-07-02T00:59:05;19.20;99.90
11559;DHT22;5835;42.930;25.178;2023-07-02T01:01:32;19.30;99.90
11559;DHT22;5835;42.930;25.178;2023-07-02T01:04:05;19.30;73.00
11559;DHT22;5835;42.930;25.178;2023-07-02T01:06:34;19.20;97.40
11559;DHT22;5835;42.930;25.178;2023-07-02T01:09:02;19.30;99.90
11559;DHT22;5835;42.930;25.178;2023-07-02T01:11:31;19.20;99.00
11559;DHT22;5835;42.930;25.178;2023-07-02T01:14:03;19.10;99.90
11559;DHT22;5835;42.930;25.178;2023-07-02T01:16:33;19.10;99.90
11559;DHT22;5835;42.930;25.178;2023-07-02T01:19:06;19.10;99.90
11559;DHT22;5835;42.930;25.178;2023-07-02T01:21:39;19.10;99.90
11559;DHT22;5835;42.930;25.178;2023-07-02T01:24:07;19.20;69.10
11559;DHT22;5835;42.930;25.178;2023-07-02T01:26:35;19.10;47.50
11559;DHT22;5835;42.930;25.178;2023-07-02T01:29:13;18.80;99.90
11559;DHT22;5835;42.930;25.178;2023-07-02T01:31:41;18.90;99.90
11559;DHT22;5835;42.930;25.178;2023-07-02T01:34:08;18.90;99.90
11559;DHT22;5835;42.930;25.178;2023-07-02T01:36:36;19.10;37.80
11559;DHT22;5835;42.930;25.178;2023-07-02T01:39:05;19.00;34.90
11559;DHT22;5835;42.930;25.178;2023-07-02T01:41:41;18.70;99.90
11559;DHT22;5835;42.930;25.178;2023-07-02T01:44:09;18.50;99.90
11559;DHT22;5835;42.930;25.178;2023-07-02T01:46:37;18.50;99.90
11559;DHT22;5835;42.930;25.178;2023-07-02T01:49:05;18.50;99.90
11559;DHT22;5835;42.930;25.178;2023-07-02T01:51:33;18.50;99.90
11559;DHT22;5835;42.930;25.178;2023-07-02T01:54:00;18.70;99.90
11559;DHT22;5835;42.930;25.178;2023-07-02T01:56:29;18.60;67.40
11559;DHT22;5835;42.930;25.178;2023-07-02T01:58:57;18.70;36.20
11559;DHT22;5835;42.930;25.178;2023-07-02T02:01:25;18.60;99.90
11559;DHT22;5835;42.930;25.178;2023-07-02T02:03:52;18.50;99.90
11559;DHT22;5835;42.930;25.178;2023-07-02T02:06:20;18.50;96.80
11559;DHT22;5835;42.930;25.178;2023-07-02T02:08:47;18.50;99.90
11559;DHT22;5835;42.930;25.178;2023-07-02T02:11:15;18.60;99.90
11559;DHT22;5835;42.930;25.178;2023-07-02T02:13:43;18.50;1.00
11559;DHT22;5835;42.930;25.178;2023-07-02T02:16:11;18.40;53.80
11559;DHT22;5835;42.930;25.178;2023-07-02T02:18:39;18.30;99.90
11559;DHT22;5835;42.930;25.178;2023-07-02T02:21:07;18.30;99.90
11559;DHT22;5835;42.930;25.178;2023-07-02T02:23:34;18.20;99.90
11559;DHT22;5835;42.930;25.178;2023-07-02T02:26:02;18.20;99.90
11559;DHT22;5835;42.930;25.178;2023-07-02T02:28:29;18.10;99.90
11559;DHT22;5835;42.930;25.178;2023-07-02T02:30:58;18.00;99.90
11559;DHT22;5835;42.930;25.178;2023-07-02T02:33:26;17.90;99.90
11559;DHT22;5835;42.930;25.178;2023-07-02T02:35:54;17.90;99.90
11559;DHT22;5835;42.930;25.178;2023-07-02T02:38:21;17.90;99.90
11559;DHT22;5835;42.930;25.178;2023-07-02T02:40:49;17.80;99.90
11559;DHT22;5835;42.930;25.178;2023-07-02T02:43:16;17.80;99.90
11559;DHT22;5835;42.930;25.178;2023-07-02T02:45:44;17.80;99.90
11559;DHT22;5835;42.930;25.178;2023-07-02T02:48:13;17.80;99.90
11559;DHT22;5835;42.930;25.178;2023-07-02T02:50:41;17.80;99.90
11559;DHT22;5835;42.930;25.178;2023-07-02T02:53:09;17.90;99.90
11559;DHT22;5835;42.930;25.178;2023-07-02T02:55:36;17.90;99.90
11559;DHT22;5835;42.930;25.178;2023-07-02T02:58:04;17.90;99.90
11559;DHT22;5835;42.930;25.178;2023-07-02T03:00:32;17.90;99.90
11559;DHT22;5835;42.930;25.178;2023-07-02T03:03:00;17.90;99.90
11559;DHT22;5835;42.930;25.178;2023-07-02T03:05:30;17.90;99.90
11559;DHT22;5835;42.930;25.178;2023-07-02T03:07:57;18.00;99.90
11559;DHT22;5835;42.930;25.178;2023-07-02T03:10:25;18.00;99.90
11559;DHT22;5835;42.930;25.178;2023-07-02T03:12:54;18.10;99.90
11559;DHT22;5835;42.930;25.178;2023-07-02T03:15:21;18.10;99.90
11559;DHT22;5835;42.930;25.178;2023-07-02T03:17:49;18.10;99.90
11559;DHT22;5835;42.930;25.178;2023-07-02T03:20:16;18.20;99.90
11559;DHT22;5835;42.930;25.178;2023-07-02T03:22:45;18.20;99.90
11559;DHT22;5835;42.930;25.178;2023-07-02T03:25:13;18.30;99.90
11559;DHT22;5835;42.930;25.178;2023-07-02T03:27:41;18.30;99.90
11559;DHT22;5835;42.930;25.178;2023-07-02T03:30:08;18.40;99.90
11559;DHT22;5835;42.930;25.178;2023-07-02T03:32:36;18.40;99.90
11559;DHT22;5835;42.930;25.178;2023-07-02T03:35:04;18.50;99.90
11559;DHT22;5835;42.930;25.178;2023-07-02T03:37:31;18.50;99.90
11559;DHT22;5835;42.930;25.178;2023-07-02T03:40:00;18.60;99.90
11559;DHT22;5835;42.930;25.178;2023-07-02T03:42:28;18.60;99.90
11559;DHT22;5835;42.930;25.178;2023-07-02T03:44:56;18.60;99.90
11559;DHT22;5835;42.930;25.178;2023-07-02T03:47:23;18.30;99.90
11559;DHT22;5835;42.930;25.178;2023-07-02T03:49:51;18.00;99.90
11559;DHT22;5835;42.930;25.178;2023-07-02T03:52:19;17.60;99.90
11559;DHT22;5835;42.930;25.178;2023-07-02T03:54:47;17.60;99.90
11559;DHT22;5835;42.930;25.178;2023-07-02T03:57:16;17.60;99.90
11559;DHT22;5835;42.930;25.178;2023-07-02T03:59:43;17.70;99.90
11559;DHT22;5835;42.930;25.178;2023-07-02T04:02:11;17.80;99.90
11559;DHT22;5835;42.930;25.178;2023-07-02T04:04:39;17.80;99.90
11559;DHT22;5835;42.930;25.178;2023-07-02T04:07:06;17.70;99.90
11559;DHT22;5835;42.930;25.178;2023-07-02T04:09:34;17.80;99.90
11559;DHT22;5835;42.930;25.178;2023-07-02T04:12:05;17.90;99.90
11559;DHT22;5835;42.930;25.178;2023-07-02T04:14:34;18.20;99.90
11559;DHT22;5835;42.930;25.178;2023-07-02T04:17:02;18.50;99.90
11559;DHT22;5835;42.930;25.178;2023-07-02T04:19:30;18.60;99.90
11559;DHT22;5835;42.930;25.178;2023-07-02T04:21:57;18.90;99.90
11559;DHT22;5835;42.930;25.178;2023-07-02T04:24:25;18.90;99.90
11559;DHT22;5835;42.930;25.178;2023-07-02T04:26:52;18.90;99.90
11559;DHT22;5835;42.930;25.178;2023-07-02T04:29:25;19.10;99.90
11559;DHT22;5835;42.930;25.178;2023-07-02T04:31:54;19.20;99.90
11559;DHT22;5835;42.930;25.178;2023-07-02T04:34:22;19.20;99.90
11559;DHT22;5835;42.930;25.178;2023-07-02T04:36:50;19.30;99.90
11559;DHT22;5835;42.930;25.178;2023-07-02T04:39:17;19.60;99.90
11559;DHT22;5835;42.930;25.178;2023-07-02T04:41:45;19.90;99.90
11559;DHT22;5835;42.930;25.178;2023-07-02T04:44:18;20.20;74.10
11559;DHT22;5835;42.930;25.178;2023-07-02T04:46:57;20.40;30.90
11559;DHT22;5835;42.930;25.178;2023-07-02T04:49:25;20.50;1.00
11559;DHT22;5835;42.930;25.178;2023-07-02T04:51:52;20.60;1.00
11559;DHT22;5835;42.930;25.178;2023-07-02T04:54:20;20.50;79.80
11559;DHT22;5835;42.930;25.178;2023-07-02T04:56:48;20.60;11.70
11559;DHT22;5835;42.930;25.178;2023-07-02T04:59:19;20.70;1.00
11559;DHT22;5835;42.930;25.178;2023-07-02T05:01:46;20.70;1.00
11559;DHT22;5835;42.930;25.178;2023-07-02T05:04:15;21.00;1.00
11559;DHT22;5835;42.930;25.178;2023-07-02T05:06:43;21.30;1.00
11559;DHT22;5835;42.930;25.178;2023-07-02T05:09:10;21.40;99.90
11559;DHT22;5835;42.930;25.178;2023-07-02T05:11:38;21.60;99.90
11559;DHT22;5835;42.930;25.178;2023-07-02T05:14:05;21.80;99.90
11559;DHT22;5835;42.930;25.178;2023-07-02T05:16:32;21.90;1.00
11559;DHT22;5835;42.930;25.178;2023-07-02T05:19:00;21.70;99.90
11559;DHT22;5835;42.930;25.178;2023-07-02T05:21:29;21.60;1.00
11559;DHT22;5835;42.930;25.178;2023-07-02T05:23:57;21.80;99.90
11559;DHT22;5835;42.930;25.178;2023-07-02T05:26:24;22.00;1.00
11559;DHT22;5835;42.930;25.178;2023-07-02T05:28:53;22.20;1.00
11559;DHT22;5835;42.930;25.178;2023-07-02T05:31:20;22.20;99.90
11559;DHT22;5835;42.930;25.178;2023-07-02T05:33:48;21.90;1.00
11559;DHT22;5835;42.930;25.178;2023-07-02T05:36:15;21.90;1.00
11559;DHT22;5835;42.930;25.178;2023-07-02T05:38:44;22.20;99.90
11559;DHT22;5835;42.930;25.178;2023-07-02T05:41:18;22.60;1.00
11559;DHT22;5835;42.930;25.178;2023-07-02T05:43:46;22.70;62.60
11559;DHT22;5835;42.930;25.178;2023-07-02T05:46:13;22.20;36.70
11559;DHT22;5835;42.930;25.178;2023-07-02T05:48:41;22.30;1.00
11559;DHT22;5835;42.930;25.178;2023-07-02T05:51:08;22.30;1.00
11559;DHT22;5835;42.930;25.178;2023-07-02T05:53:37;22.80;99.90
11559;DHT22;5835;42.930;25.178;2023-07-02T05:56:06;22.80;1.00
11559;DHT22;5835;42.930;25.178;2023-07-02T05:58:34;22.70;1.00
11559;DHT22;5835;42.930;25.178;2023-07-02T06:01:01;22.60;1.00
11559;DHT22;5835;42.930;25.178;2023-07-02T06:03:31;22.60;1.00
11559;DHT22;5835;42.930;25.178;2023-07-02T06:05:58;22.90;1.00
11559;DHT22;5835;42.930;25.178;2023-07-02T06:08:26;23.10;1.00
11559;DHT22;5835;42.930;25.178;2023-07-02T06:10:53;23.30;1.00
11559;DHT22;5835;42.930;25.178;2023-07-02T06:13:22;23.50;1.00
11559;DHT22;5835;42.930;25.178;2023-07-02T06:15:50;23.40;99.90
11559;DHT22;5835;42.930;25.178;2023-07-02T06:18:17;23.30;1.00
11559;DHT22;5835;42.930;25.178;2023-07-02T06:20:46;23.20;99.90
11559;DHT22;5835;42.930;25.178;2023-07-02T06:23:14;23.20;1.00
11559;DHT22;5835;42.930;25.178;2023-07-02T06:25:41;23.50;1.00
11559;DHT22;5835;42.930;25.178;2023-07-02T06:28:12;23.80;99.90
11559;DHT22;5835;42.930;25.178;2023-07-02T06:30:41;24.10;99.90
11559;DHT22;5835;42.930;25.178;2023-07-02T06:33:09;24.00;99.90
11559;DHT22;5835;42.930;25.178;2023-07-02T06:35:36;23.90;99.90
11559;DHT22;5835;42.930;25.178;2023-07-02T06:38:04;23.70;99.90
11559;DHT22;5835;42.930;25.178;2023-07-02T06:40:31;23.60;99.90
11559;DHT22;5835;42.930;25.178;2023-07-02T06:43:00;23.90;99.90
11559;DHT22;5835;42.930;25.178;2023-07-02T06:45:27;24.20;87.90
11559;DHT22;5835;42.930;25.178;2023-07-02T06:47:56;24.40;1.00
11559;DHT22;5835;42.930;25.178;2023-07-02T06:50:24;24.70;1.00
11559;DHT22;5835;42.930;25.178;2023-07-02T06:52:51;24.70;1.00
11559;DHT22;5835;42.930;25.178;2023-07-02T06:55:19;24.60;1.00
11559;DHT22;5835;42.930;25.178;2023-07-02T06:57:46;24.60;1.00
11559;DHT22;5835;42.930;25.178;2023-07-02T07:00:15;24.80;1.00
11559;DHT22;5835;42.930;25.178;2023-07-02T07:02:42;25.40;1.00
11559;DHT22;5835;42.930;25.178;2023-07-02T07:05:11;25.30;99.90
11559;DHT22;5835;42.930;25.178;2023-07-02T07:07:39;25.10;99.90
11559;DHT22;5835;42.930;25.178;2023-07-02T07:10:07;25.00;99.90
11559;DHT22;5835;42.930;25.178;2023-07-02T07:12:35;24.50;99.90
11559;DHT22;5835;42.930;25.178;2023-07-02T07:15:04;24.50;99.90
11559;DHT22;5835;42.930;25.178;2023-07-02T07:17:31;24.40;99.90
11559;DHT22;5835;42.930;25.178;2023-07-02T07:19:59;24.40;1.00
11559;DHT22;5835;42.930;25.178;2023-07-02T07:22:30;24.90;99.90
11559;DHT22;5835;42.930;25.178;2023-07-02T07:24:57;25.30;99.90
11559;DHT22;5835;42.930;25.178;2023-07-02T07:27:25;25.40;99.90
11559;DHT22;5835;42.930;25.178;2023-07-02T07:29:52;25.50;99.90
11559;DHT22;5835;42.930;25.178;2023-07-02T07:32:21;25.50;99.90
11559;DHT22;5835;42.930;25.178;2023-07-02T07:34:48;25.70;99.90
11559;DHT22;5835;42.930;25.178;2023-07-02T07:37:16;25.80;99.90
11559;DHT22;5835;42.930;25.178;2023-07-02T07:39:45;25.80;99.90
11559;DHT22;5835;42.930;25.178;2023-07-02T07:42:14;25.70;99.90
11559;DHT22;5835;42.930;25.178;2023-07-02T07:44:43;25.80;99.90
11559;DHT22;5835;42.930;25.178;2023-07-02T07:47:11;26.00;99.90
11559;DHT22;5835;42.930;25.178;2023-07-02T07:49:39;26.30;99.90
11559;DHT22;5835;42.930;25.178;2023-07-02T07:52:07;26.40;99.90
11559;DHT22;5835;42.930;25.178;2023-07-02T07:54:35;26.10;99.90
11559;DHT22;5835;42.930;25.178;2023-07-02T07:57:04;25.60;99.90
11559;DHT22;5835;42.930;25.178;2023-07-02T07:59:32;25.80;99.90
11559;DHT22;5835;42.930;25.178;2023-07-02T08:01:59;25.10;99.90
11559;DHT22;5835;42.930;25.178;2023-07-02T08:04:27;25.30;99.90
11559;DHT22;5835;42.930;25.178;2023-07-02T08:06:55;25.50;99.90
11559;DHT22;5835;42.930;25.178;2023-07-02T08:09:23;25.20;99.90
11559;DHT22;5835;42.930;25.178;2023-07-02T08:11:50;24.50;99.90
11559;DHT22;5835;42.930;25.178;2023-07-02T08:14:19;23.90;99.90
11559;DHT22;5835;42.930;25.178;2023-07-02T08:16:47;24.00;99.90
11559;DHT22;5835;42.930;25.178;2023-07-02T08:19:14;24.60;99.90
11559;DHT22;5835;42.930;25.178;2023-07-02T08:21:42;24.90;99.90
11559;DHT22;5835;42.930;25.178;2023-07-02T08:24:09;24.80;99.90
11559;DHT22;5835;42.930;25.178;2023-07-02T08:26:37;24.90;99.90
11559;DHT22;5835;42.930;25.178;2023-07-02T08:29:04;25.00;99.90
11559;DHT22;5835;42.930;25.178;2023-07-02T08:31:33;25.30;99.90
11559;DHT22;5835;42.930;25.178;2023-07-02T08:34:00;25.70;99.90
11559;DHT22;5835;42.930;25.178;2023-07-02T08:36:28;25.30;99.90
11559;DHT22;5835;42.930;25.178;2023-07-02T08:38:55;25.70;94.50
11559;DHT22;5835;42.930;25.178;2023-07-02T08:41:23;25.80;66.80
11559;DHT22;5835;42.930;25.178;2023-07-02T08:43:54;25.60;15.80
11559;DHT22;5835;42.930;25.178;2023-07-02T08:46:22;26.20;8.30
11559;DHT22;5835;42.930;25.178;2023-07-02T08:48:51;26.30;25.20
11559;DHT22;5835;42.930;25.178;2023-07-02T08:51:18;26.80;1.00
11559;DHT22;5835;42.930;25.178;2023-07-02T08:53:46;26.90;1.00
11559;DHT22;5835;42.930;25.178;2023-07-02T08:56:14;27.20;1.00
11559;DHT22;5835;42.930;25.178;2023-07-02T08:58:41;27.30;1.00
11559;DHT22;5835;42.930;25.178;2023-07-02T09:01:10;26.90;1.00
11559;DHT22;5835;42.930;25.178;2023-07-02T09:03:38;26.70;1.00
11559;DHT22;5835;42.930;25.178;2023-07-02T09:06:08;26.80;1.00
11559;DHT22;5835;42.930;25.178;2023-07-02T09:08:36;26.70;1.00
11559;DHT22;5835;42.930;25.178;2023-07-02T09:11:08;26.90;1.00
11559;DHT22;5835;42.930;25.178;2023-07-02T09:13:43;27.30;1.00
11559;DHT22;5835;42.930;25.178;2023-07-02T09:16:21;27.50;1.00
11559;DHT22;5835;42.930;25.178;2023-07-02T09:18:59;27.50;1.00
11559;DHT22;5835;42.930;25.178;2023-07-02T09:21:38;27.50;1.00
11559;DHT22;5835;42.930;25.178;2023-07-02T09:24:14;27.60;1.00
11559;DHT22;5835;42.930;25.178;2023-07-02T09:26:45;27.40;1.00
11559;DHT22;5835;42.930;25.178;2023-07-02T09:29:20;27.50;1.00
11559;DHT22;5835;42.930;25.178;2023-07-02T09:31:49;27.60;1.00
11559;DHT22;5835;42.930;25.178;2023-07-02T09:34:16;27.80;1.00
11559;DHT22;5835;42.930;25.178;2023-07-02T09:36:45;27.90;1.00
11559;DHT22;5835;42.930;25.178;2023-07-02T09:39:14;27.70;1.00
11559;DHT22;5835;42.930;25.178;2023-07-02T09:41:42;27.70;1.00
11559;DHT22;5835;42.930;25.178;2023-07-02T09:44:10;28.50;1.00
11559;DHT22;5835;42.930;25.178;2023-07-02T09:46:43;29.00;1.00
11559;DHT22;5835;42.930;25.178;2023-07-02T09:49:16;28.50;1.00
11559;DHT22;5835;42.930;25.178;2023-07-02T09:51:46;28.30;1.00
11559;DHT22;5835;42.930;25.178;2023-07-02T09:54:13;28.50;1.00
11559;DHT22;5835;42.930;25.178;2023-07-02T09:56:41;28.80;1.00
11559;DHT22;5835;42.930;25.178;2023-07-02T09:59:08;28.80;1.00
11559;DHT22;5835;42.930;25.178;2023-07-02T10:01:36;29.50;1.00
11559;DHT22;5835;42.930;25.178;2023-07-02T10:04:13;29.90;1.00
11559;DHT22;5835;42.930;25.178;2023-07-02T10:06:46;30.40;1.00
11559;DHT22;5835;42.930;25.178;2023-07-02T10:09:15;30.20;1.00
11559;DHT22;5835;42.930;25.178;2023-07-02T10:11:43;30.70;1.00
11559;DHT22;5835;42.930;25.178;2023-07-02T10:14:11;30.70;1.00
11559;DHT22;5835;42.930;25.178;2023-07-02T10:16:51;30.60;1.00
11559;DHT22;5835;42.930;25.178;2023-07-02T10:19:19;29.90;1.00
11559;DHT22;5835;42.930;25.178;2023-07-02T10:22:01;30.00;1.00
11559;DHT22;5835;42.930;25.178;2023-07-02T10:24:29;30.00;1.00
11559;DHT22;5835;42.930;25.178;2023-07-02T10:26:58;30.40;1.00
11559;DHT22;5835;42.930;25.178;2023-07-02T10:29:26;30.40;1.00
11559;DHT22;5835;42.930;25.178;2023-07-02T10:31:55;30.80;1.00
11559;DHT22;5835;42.930;25.178;2023-07-02T10:34:30;30.80;1.00
11559;DHT22;5835;42.930;25.178;2023-07-02T10:37:00;31.80;1.00
11559;DHT22;5835;42.930;25.178;2023-07-02T10:39:28;32.10;1.00
11559;DHT22;5835;42.930;25.178;2023-07-02T10:42:06;32.30;1.00
11559;DHT22;5835;42.930;25.178;2023-07-02T10:44:47;32.80;1.00
11559;DHT22;5835;42.930;25.178;2023-07-02T10:47:15;32.50;1.00
11559;DHT22;5835;42.930;25.178;2023-07-02T10:49:43;32.10;1.00
11559;DHT22;5835;42.930;25.178;2023-07-02T10:52:12;32.00;1.00
11559;DHT22;5835;42.930;25.178;2023-07-02T10:54:41;32.60;1.00
11559;DHT22;5835;42.930;25.178;2023-07-02T10:57:09;32.60;1.00
11559;DHT22;5835;42.930;25.178;2023-07-02T10:59:37;32.60;1.00
11559;DHT22;5835;42.930;25.178;2023-07-02T11:02:05;32.90;1.00
11559;DHT22;5835;42.930;25.178;2023-07-02T11:04:33;32.60;1.00
11559;DHT22;5835;42.930;25.178;2023-07-02T11:07:01;33.00;1.00
11559;DHT22;5835;42.930;25.178;2023-07-02T11:09:30;33.30;1.00
11559;DHT22;5835;42.930;25.178;2023-07-02T11:11:59;33.50;1.00
11559;DHT22;5835;42.930;25.178;2023-07-02T11:14:31;33.30;1.00
11559;DHT22;5835;42.930;25.178;2023-07-02T11:16:59;33.40;1.00
11559;DHT22;5835;42.930;25.178;2023-07-02T11:19:29;34.10;1.00
11559;DHT22;5835;42.930;25.178;2023-07-02T11:21:57;34.30;1.00
11559;DHT22;5835;42.930;25.178;2023-07-02T11:24:31;34.40;1.00
11559;DHT22;5835;42.930;25.178;2023-07-02T11:26:59;34.90;1.00
11559;DHT22;5835;42.930;25.178;2023-07-02T11:29:28;35.10;1.00
11559;DHT22;5835;42.930;25.178;2023-07-02T11:32:04;34.30;1.00
11559;DHT22;5835;42.930;25.178;2023-07-02T11:34:32;34.00;1.00
11559;DHT22;5835;42.930;25.178;2023-07-02T11:37:00;34.20;1.00
11559;DHT22;5835;42.930;25.178;2023-07-02T11:39:27;34.30;1.00
11559;DHT22;5835;42.930;25.178;2023-07-02T11:41:57;34.30;1.00
11559;DHT22;5835;42.930;25.178;2023-07-02T11:44:24;34.20;1.00
11559;DHT22;5835;42.930;25.178;2023-07-02T11:46:52;34.00;1.00
11559;DHT22;5835;42.930;25.178;2023-07-02T11:49:19;32.90;1.00
11559;DHT22;5835;42.930;25.178;2023-07-02T11:51:47;32.60;1.00
11559;DHT22;5835;42.930;25.178;2023-07-02T11:54:15;32.70;1.00
11559;DHT22;5835;42.930;25.178;2023-07-02T11:56:44;32.60;1.00
11559;DHT22;5835;42.930;25.178;2023-07-02T11:59:13;32.10;1.00
11559;DHT22;5835;42.930;25.178;2023-07-02T12:01:41;32.50;1.00
11559;DHT22;5835;42.930;25.178;2023-07-02T12:04:10;32.50;1.00
11559;DHT22;5835;42.930;25.178;2023-07-02T12:06:39;31.80;1.00
11559;DHT22;5835;42.930;25.178;2023-07-02T12:09:07;32.20;1.00
11559;DHT22;5835;42.930;25.178;2023-07-02T12:11:35;32.90;1.00
11559;DHT22;5835;42.930;25.178;2023-07-02T12:14:03;33.30;1.00
11559;DHT22;5835;42.930;25.178;2023-07-02T12:16:32;33.60;1.00
11559;DHT22;5835;42.930;25.178;2023-07-02T12:19:00;33.30;1.00
11559;DHT22;5835;42.930;25.178;2023-07-02T12:21:27;33.10;1.00
11559;DHT22;5835;42.930;25.178;2023-07-02T12:23:54;32.40;1.00
11559;DHT22;5835;42.930;25.178;2023-07-02T12:26:22;31.80;1.00
11559;DHT22;5835;42.930;25.178;2023-07-02T12:28:50;31.20;1.00
11559;DHT22;5835;42.930;25.178;2023-07-02T12:31:17;31.40;1.00
11559;DHT22;5835;42.930;25.178;2023-07-02T12:33:46;31.20;1.00
11559;DHT22;5835;42.930;25.178;2023-07-02T12:36:14;31.30;1.00
11559;DHT22;5835;42.930;25.178;2023-07-02T12:38:42;30.50;1.00
11559;DHT22;5835;42.930;25.178;2023-07-02T12:41:09;30.40;1.00
11559;DHT22;5835;42.930;25.178;2023-07-02T12:43:37;30.40;1.00
11559;DHT22;5835;42.930;25.178;2023-07-02T12:46:05;30.90;1.00
11559;DHT22;5835;42.930;25.178;2023-07-02T12:48:33;31.10;1.00
11559;DHT22;5835;42.930;25.178;2023-07-02T12:51:02;31.10;1.00
11559;DHT22;5835;42.930;25.178;2023-07-02T12:53:29;31.30;1.00
11559;DHT22;5835;42.930;25.178;2023-07-02T12:55:57;31.30;1.00
11559;DHT22;5835;42.930;25.178;2023-07-02T12:58:24;30.10;1.00
11559;DHT22;5835;42.930;25.178;2023-07-02T13:00:52;30.40;1.00
11559;DHT22;5835;42.930;25.178;2023-07-02T13:03:21;30.40;1.00
11559;DHT22;5835;42.930;25.178;2023-07-02T13:05:51;30.40;1.00
11559;DHT22;5835;42.930;25.178;2023-07-02T13:08:20;30.50;1.00
11559;DHT22;5835;42.930;25.178;2023-07-02T13:10:48;30.30;1.00
11559;DHT22;5835;42.930;25.178;2023-07-02T13:13:15;29.80;1.00
11559;DHT22;5835;42.930;25.178;2023-07-02T13:15:43;29.30;1.00
11559;DHT22;5835;42.930;25.178;2023-07-02T13:18:10;29.20;1.00
11559;DHT22;5835;42.930;25.178;2023-07-02T13:20:38;29.50;1.00
11559;DHT22;5835;42.930;25.178;2023-07-02T13:23:05;29.80;1.00
11559;DHT22;5835;42.930;25.178;2023-07-02T13:25:34;30.00;1.00
11559;DHT22;5835;42.930;25.178;2023-07-02T13:28:02;30.50;1.00
11559;DHT22;5835;42.930;25.178;2023-07-02T13:30:30;30.60;1.00
11559;DHT22;5835;42.930;25.178;2023-07-02T13:32:57;30.90;1.00
11559;DHT22;5835;42.930;25.178;2023-07-02T13:35:25;31.00;1.00
11559;DHT22;5835;42.930;25.178;2023-07-02T13:37:52;31.60;1.00
11559;DHT22;5835;42.930;25.178;2023-07-02T13:40:20;31.80;1.00
11559;DHT22;5835;42.930;25.178;2023-07-02T13:42:49;32.00;1.00
11559;DHT22;5835;42.930;25.178;2023-07-02T13:45:17;32.20;1.00
11559;DHT22;5835;42.930;25.178;2023-07-02T13:47:45;32.60;1.00
11559;DHT22;5835;42.930;25.178;2023-07-02T13:50:13;32.40;1.00
11559;DHT22;5835;42.930;25.178;2023-07-02T13:52:40;32.90;1.00
11559;DHT22;5835;42.930;25.178;2023-07-02T13:55:08;32.90;1.00
11559;DHT22;5835;42.930;25.178;2023-07-02T13:57:36;32.90;1.00
11559;DHT22;5835;42.930;25.178;2023-07-02T14:00:06;33.00;1.00
11559;DHT22;5835;42.930;25.178;2023-07-02T14:02:34;33.20;1.00
11559;DHT22;5835;42.930;25.178;2023-07-02T14:05:02;33.20;1.00
11559;DHT22;5835;42.930;25.178;2023-07-02T14:07:30;33.10;1.00
11559;DHT22;5835;42.930;25.178;2023-07-02T14:09:57;32.70;1.00
11559;DHT22;5835;42.930;25.178;2023-07-02T14:12:25;32.90;1.00
11559;DHT22;5835;42.930;25.178;2023-07-02T14:14:53;33.30;1.00
11559;DHT22;5835;42.930;25.178;2023-07-02T14:17:22;33.70;1.00
11559;DHT22;5835;42.930;25.178;2023-07-02T14:19:50;34.00;1.00
11559;DHT22;5835;42.930;25.178;2023-07-02T14:22:17;34.10;1.00
11559;DHT22;5835;42.930;25.178;2023-07-02T14:24:45;34.50;1.00
11559;DHT22;5835;42.930;25.178;2023-07-02T14:27:13;34.40;1.00
11559;DHT22;5835;42.930;25.178;2023-07-02T14:29:40;33.80;1.00
11559;DHT22;5835;42.930;25.178;2023-07-02T14:32:08;33.20;1.00
11559;DHT22;5835;42.930;25.178;2023-07-02T14:34:37;33.20;1.00
11559;DHT22;5835;42.930;25.178;2023-07-02T14:37:05;33.70;1.00
11559;DHT22;5835;42.930;25.178;2023-07-02T14:39:33;34.50;1.00
11559;DHT22;5835;42.930;25.178;2023-07-02T14:42:00;34.90;1.00
11559;DHT22;5835;42.930;25.178;2023-07-02T14:44:28;35.30;1.00
11559;DHT22;5835;42.930;25.178;2023-07-02T14:46:55;34.90;1.00
11559;DHT22;5835;42.930;25.178;2023-07-02T14:49:23;34.90;1.00
11559;DHT22;5835;42.930;25.178;2023-07-02T14:51:53;34.30;1.00
11559;DHT22;5835;42.930;25.178;2023-07-02T14:54:20;34.30;1.00
11559;DHT22;5835;42.930;25.178;2023-07-02T14:56:47;34.30;1.00
11559;DHT22;5835;42.930;25.178;2023-07-02T14:59:15;34.00;1.00
11559;DHT22;5835;42.930;25.178;2023-07-02T15:01:43;33.50;1.00
11559;DHT22;5835;42.930;25.178;2023-07-02T15:04:10;32.90;1.00
11559;DHT22;5835;42.930;25.178;2023-07-02T15:06:38;33.00;1.00
11559;DHT22;5835;42.930;25.178;2023-07-02T15:09:07;32.60;1.00
11559;DHT22;5835;42.930;25.178;2023-07-02T15:11:34;32.10;1.00
11559;DHT22;5835;42.930;25.178;2023-07-02T15:14:02;31.50;1.00
11559;DHT22;5835;42.930;25.178;2023-07-02T15:16:30;31.30;1.00
11559;DHT22;5835;42.930;25.178;2023-07-02T15:18:57;30.90;1.00
11559;DHT22;5835;42.930;25.178;2023-07-02T15:21:25;30.90;1.00
11559;DHT22;5835;42.930;25.178;2023-07-02T15:23:52;30.50;1.00
11559;DHT22;5835;42.930;25.178;2023-07-02T15:26:21;30.50;1.00
11559;DHT22;5835;42.930;25.178;2023-07-02T15:28:49;30.30;1.00
11559;DHT22;5835;42.930;25.178;2023-07-02T15:31:17;30.00;1.00
11559;DHT22;5835;42.930;25.178;2023-07-02T15:33:45;29.80;1.00
11559;DHT22;5835;42.930;25.178;2023-07-02T15:36:12;29.60;1.00
11559;DHT22;5835;42.930;25.178;2023-07-02T15:38:40;29.50;1.00
11559;DHT22;5835;42.930;25.178;2023-07-02T15:41:11;29.20;1.00
11559;DHT22;5835;42.930;25.178;2023-07-02T15:43:41;28.80;1.00
11559;DHT22;5835;42.930;25.178;2023-07-02T15:46:10;28.40;1.00
11559;DHT22;5835;42.930;25.178;2023-07-02T15:48:38;28.20;1.00